createdAt,value
2022-09-18T00:02:10.540Z,11.69
2022-09-18T00:05:13.576Z,11.65
2022-09-18T00:08:16.656Z,11.55
2022-09-18T00:11:24.267Z,11.58
2022-09-18T00:14:27.962Z,11.53
2022-09-18T00:17:30.908Z,11.45
2022-09-18T00:20:38.254Z,11.41
2022-09-18T00:23:42.634Z,11.36
2022-09-18T00:26:47.699Z,11.36
2022-09-18T00:29:50.683Z,11.43
2022-09-18T00:32:53.894Z,11.39
2022-09-18T00:35:56.832Z,11.41
2022-09-18T00:39:00.500Z,11.29
2022-09-18T00:42:05.595Z,11.34
2022-09-18T00:45:10.797Z,11.32
2022-09-18T00:48:13.827Z,11.28
2022-09-18T00:51:19.219Z,11.26
2022-09-18T00:54:28.331Z,11.27
2022-09-18T00:57:36.499Z,11.20
2022-09-18T01:00:39.919Z,11.19
2022-09-18T01:03:43.504Z,11.01
2022-09-18T01:06:52.009Z,11.08
2022-09-18T01:10:07.284Z,11.09
2022-09-18T01:13:21.314Z,11.12
2022-09-18T01:16:35.046Z,10.99
2022-09-18T01:20:07.487Z,10.96
2022-09-18T01:23:32.146Z,11.00
2022-09-18T01:26:55.218Z,10.96
2022-09-18T01:30:06.801Z,10.97
2022-09-18T01:33:17.964Z,10.90
2022-09-18T01:36:25.840Z,10.86
2022-09-18T01:39:35.700Z,10.84
2022-09-18T01:42:41.143Z,10.80
2022-09-18T01:45:48.947Z,10.76
2022-09-18T01:49:02.467Z,10.71
2022-09-18T01:52:11.610Z,10.70
2022-09-18T01:55:22.999Z,10.67
2022-09-18T01:58:30.045Z,10.68
2022-09-18T02:01:38.931Z,10.69
2022-09-18T02:04:46.375Z,10.71
2022-09-18T02:08:00.975Z,10.67
2022-09-18T02:11:08.466Z,10.74
2022-09-18T02:14:16.188Z,10.66
2022-09-18T02:17:50.334Z,10.74
2022-09-18T02:20:56.189Z,10.77
2022-09-18T02:24:05.916Z,10.86
2022-09-18T02:27:12.971Z,10.80
2022-09-18T02:30:16.479Z,10.81
2022-09-18T02:33:33.122Z,10.81
2022-09-18T02:36:59.716Z,10.82
2022-09-18T02:40:25.400Z,10.81
2022-09-18T02:43:42.053Z,10.88
2022-09-18T02:46:58.131Z,10.89
2022-09-18T02:50:15.466Z,10.90
2022-09-18T02:53:27.115Z,10.84
2022-09-18T02:56:39.585Z,10.80
2022-09-18T02:59:47.552Z,10.81
2022-09-18T03:02:52.905Z,10.80
2022-09-18T03:06:09.621Z,10.76
2022-09-18T03:09:13.712Z,10.75
2022-09-18T03:12:16.987Z,10.76
2022-09-18T03:15:25.933Z,10.77
2022-09-18T03:18:28.890Z,10.75
2022-09-18T03:21:34.871Z,10.74
2022-09-18T03:24:39.704Z,10.71
2022-09-18T03:27:43.603Z,10.72
2022-09-18T03:30:52.095Z,10.73
2022-09-18T03:33:55.828Z,10.71
2022-09-18T03:37:00.255Z,10.73
2022-09-18T03:40:04.075Z,10.78
2022-09-18T03:43:09.040Z,10.73
2022-09-18T03:46:12.325Z,10.74
2022-09-18T03:49:15.851Z,10.73
2022-09-18T03:52:20.997Z,10.69
2022-09-18T03:55:30.528Z,10.74
2022-09-18T03:58:59.381Z,10.71
2022-09-18T04:02:22.880Z,10.73
2022-09-18T04:05:44.558Z,10.71
2022-09-18T04:09:07.929Z,10.65
2022-09-18T04:12:18.824Z,10.65
2022-09-18T04:15:30.232Z,10.66
2022-09-18T04:18:33.738Z,10.65
2022-09-18T04:21:39.050Z,10.66
2022-09-18T04:24:43.460Z,10.58
2022-09-18T04:27:47.308Z,10.58
2022-09-18T04:30:51.099Z,10.60
2022-09-18T04:33:54.136Z,10.60
2022-09-18T04:37:00.075Z,10.55
2022-09-18T04:40:07.628Z,10.56
2022-09-18T04:43:11.816Z,10.57
2022-09-18T04:46:17.091Z,10.59
2022-09-18T04:49:21.097Z,10.58
2022-09-18T04:52:25.093Z,10.59
2022-09-18T04:55:29.757Z,10.56
2022-09-18T04:58:33.203Z,10.61
2022-09-18T05:01:38.286Z,10.54
2022-09-18T05:04:46.762Z,10.54
2022-09-18T05:08:03.937Z,10.55
2022-09-18T05:11:08.421Z,10.56
2022-09-18T05:14:13.388Z,10.55
2022-09-18T05:17:20.650Z,10.60
2022-09-18T05:20:38.220Z,10.51
2022-09-18T05:23:45.175Z,10.50
2022-09-18T05:26:49.799Z,10.51
2022-09-18T05:29:55.878Z,10.43
2022-09-18T05:33:08.075Z,10.42
2022-09-18T05:36:14.720Z,10.41
2022-09-18T05:39:18.043Z,10.46
2022-09-18T05:42:22.842Z,10.44
2022-09-18T05:45:26.885Z,10.42
2022-09-18T05:48:31.089Z,10.37
2022-09-18T05:51:34.611Z,10.30
2022-09-18T05:54:38.026Z,10.33
2022-09-18T05:57:42.726Z,10.30
2022-09-18T06:00:47.446Z,10.22
2022-09-18T06:03:59.408Z,10.19
2022-09-18T06:07:05.353Z,10.18
2022-09-18T06:10:09.351Z,10.19
2022-09-18T06:13:16.390Z,10.19
2022-09-18T06:16:22.895Z,10.25
2022-09-18T06:19:32.422Z,10.20
2022-09-18T06:22:36.798Z,10.28
2022-09-18T06:25:39.991Z,10.22
2022-09-18T06:28:48.360Z,10.20
2022-09-18T06:31:53.447Z,10.28
2022-09-18T06:35:02.706Z,10.25
2022-09-18T06:38:08.063Z,10.36
2022-09-18T06:41:15.116Z,10.40
2022-09-18T06:44:26.028Z,10.52
2022-09-18T06:47:39.323Z,10.51
2022-09-18T06:50:43.308Z,10.53
2022-09-18T06:53:46.556Z,10.55
2022-09-18T06:56:50.038Z,10.61
2022-09-18T06:59:56.575Z,10.54
2022-09-18T07:03:02.903Z,10.66
2022-09-18T07:06:31.606Z,10.81
2022-09-18T07:09:35.066Z,10.91
2022-09-18T07:12:49.243Z,10.99
2022-09-18T07:15:56.089Z,10.98
2022-09-18T07:18:59.265Z,10.97
2022-09-18T07:22:02.413Z,11.02
2022-09-18T07:25:11.651Z,11.05
2022-09-18T07:28:18.965Z,11.04
2022-09-18T07:31:36.188Z,11.21
2022-09-18T07:34:42.551Z,11.21
2022-09-18T07:37:48.831Z,11.23
2022-09-18T07:40:56.424Z,11.31
2022-09-18T07:44:06.731Z,11.31
2022-09-18T07:47:12.724Z,11.43
2022-09-18T07:50:16.295Z,11.52
2022-09-18T07:53:20.467Z,11.63
2022-09-18T07:56:27.853Z,11.57
2022-09-18T07:59:31.727Z,11.72
2022-09-18T08:02:39.514Z,11.68
2022-09-18T08:05:43.388Z,11.64
2022-09-18T08:08:46.872Z,11.66
2022-09-18T08:12:00.336Z,11.82
2022-09-18T08:15:17.803Z,11.91
2022-09-18T08:18:41.100Z,11.99
2022-09-18T08:22:06.623Z,11.93
2022-09-18T08:25:11.062Z,12.02
2022-09-18T08:28:14.082Z,12.03
2022-09-18T08:31:23.690Z,12.13
2022-09-18T08:34:32.043Z,12.36
2022-09-18T08:37:41.395Z,12.49
2022-09-18T08:41:27.146Z,12.53
2022-09-18T08:44:36.497Z,12.60
2022-09-18T08:47:46.255Z,12.63
2022-09-18T08:50:57.969Z,12.69
2022-09-18T08:54:18.969Z,12.62
2022-09-18T08:57:41.797Z,12.99
2022-09-18T09:00:53.476Z,12.72
2022-09-18T09:04:15.593Z,13.12
2022-09-18T09:07:43.113Z,13.32
2022-09-18T09:10:56.479Z,13.04
2022-09-18T09:14:39.730Z,12.93
2022-09-18T09:17:54.398Z,13.02
2022-09-18T09:21:13.993Z,12.84
2022-09-18T09:24:31.247Z,12.81
2022-09-18T09:27:45.114Z,12.81
2022-09-18T09:31:10.892Z,12.98
2022-09-18T09:34:37.623Z,13.08
2022-09-18T09:37:47.571Z,13.03
2022-09-18T09:40:55.785Z,13.27
2022-09-18T09:44:10.890Z,13.30
2022-09-18T09:47:30.427Z,13.32
2022-09-18T09:50:52.880Z,13.62
2022-09-18T09:54:01.941Z,13.92
2022-09-18T09:57:23.133Z,14.01
2022-09-18T10:00:27.044Z,13.88
2022-09-18T10:03:56.135Z,13.76
2022-09-18T10:07:18.862Z,13.68
2022-09-18T10:10:32.180Z,13.11
2022-09-18T10:13:43.056Z,12.79
2022-09-18T10:16:49.867Z,12.61
2022-09-18T10:19:54.493Z,13.11
2022-09-18T10:23:03.868Z,13.44
2022-09-18T10:26:08.018Z,13.88
2022-09-18T10:29:12.777Z,14.00
2022-09-18T10:32:35.672Z,14.39
2022-09-18T10:35:47.015Z,14.89
2022-09-18T10:38:52.380Z,14.35
2022-09-18T10:42:18.218Z,13.75
2022-09-18T10:45:29.050Z,13.70
2022-09-18T10:48:45.396Z,13.95
2022-09-18T10:51:49.044Z,14.71
2022-09-18T10:55:20.751Z,15.17
2022-09-18T10:58:33.432Z,14.73
2022-09-18T11:01:42.621Z,14.82
2022-09-18T11:04:48.690Z,14.43
2022-09-18T11:07:59.418Z,13.72
2022-09-18T11:11:07.974Z,13.37
2022-09-18T11:14:21.564Z,13.63
2022-09-18T11:17:47.010Z,14.28
2022-09-18T11:20:51.967Z,14.62
2022-09-18T11:24:05.328Z,14.93
2022-09-18T11:27:22.108Z,15.59
2022-09-18T11:30:31.607Z,15.34
2022-09-18T11:33:45.251Z,14.23
2022-09-18T11:36:53.097Z,13.45
2022-09-18T11:40:02.266Z,12.98
2022-09-18T11:43:16.474Z,12.93
2022-09-18T11:46:30.072Z,13.08
2022-09-18T11:49:41.901Z,13.40
2022-09-18T11:52:47.258Z,13.86
2022-09-18T11:55:59.082Z,14.24
2022-09-18T11:59:12.064Z,14.79
2022-09-18T12:02:23.769Z,15.23
2022-09-18T12:05:34.360Z,15.26
2022-09-18T12:08:47.401Z,15.43
2022-09-18T12:12:02.551Z,15.42
2022-09-18T12:15:17.097Z,15.91
2022-09-18T12:18:25.687Z,16.16
2022-09-18T12:21:41.151Z,15.98
2022-09-18T12:24:44.271Z,14.42
2022-09-18T12:27:58.134Z,13.24
2022-09-18T12:31:11.535Z,12.75
2022-09-18T12:34:23.074Z,12.61
2022-09-18T12:37:46.489Z,12.87
2022-09-18T12:41:16.946Z,13.67
2022-09-18T12:44:49.817Z,13.92
2022-09-18T12:48:27.033Z,14.45
2022-09-18T12:51:42.569Z,14.65
2022-09-18T12:55:06.670Z,15.06
2022-09-18T12:58:29.267Z,14.95
2022-09-18T13:01:38.279Z,15.14
2022-09-18T13:04:48.034Z,15.41
2022-09-18T13:07:56.198Z,15.53
2022-09-18T13:11:06.315Z,15.57
2022-09-18T13:14:17.815Z,15.46
2022-09-18T13:17:26.885Z,15.52
2022-09-18T13:20:35.231Z,15.87
2022-09-18T13:23:44.450Z,15.75
2022-09-18T13:26:50.859Z,15.34
2022-09-18T13:29:59.235Z,14.84
2022-09-18T13:33:03.899Z,14.32
2022-09-18T13:36:07.480Z,14.54
2022-09-18T13:39:19.886Z,15.05
2022-09-18T13:42:34.696Z,15.12
2022-09-18T13:45:39.722Z,15.33
2022-09-18T13:48:48.698Z,15.09
2022-09-18T13:51:51.910Z,14.79
2022-09-18T13:55:02.264Z,14.60
2022-09-18T13:58:50.767Z,14.40
2022-09-18T14:02:03.423Z,14.17
2022-09-18T14:05:32.355Z,13.80
2022-09-18T14:08:40.980Z,13.73
2022-09-18T14:11:44.090Z,13.65
2022-09-18T14:15:03.169Z,13.74
2022-09-18T14:18:13.128Z,13.47
2022-09-18T14:21:26.601Z,13.43
2022-09-18T14:24:58.066Z,13.22
2022-09-18T14:28:05.416Z,13.18
2022-09-18T14:31:28.882Z,13.15
2022-09-18T14:34:38.660Z,13.18
2022-09-18T14:37:41.582Z,12.98
2022-09-18T14:40:54.320Z,13.11
2022-09-18T14:44:00.462Z,13.13
2022-09-18T14:47:08.948Z,12.99
2022-09-18T14:50:31.978Z,12.80
2022-09-18T14:53:44.522Z,12.83
2022-09-18T14:56:50.094Z,12.83
2022-09-18T14:59:56.679Z,12.89
2022-09-18T15:03:06.975Z,12.92
2022-09-18T15:06:19.779Z,12.89
2022-09-18T15:09:27.914Z,12.78
2022-09-18T15:12:34.823Z,12.84
2022-09-18T15:15:40.383Z,12.80
2022-09-18T15:18:44.917Z,13.13
2022-09-18T15:21:49.276Z,13.48
2022-09-18T15:24:52.904Z,13.64
2022-09-18T15:27:58.096Z,13.65
2022-09-18T15:31:05.247Z,13.44
2022-09-18T15:34:18.030Z,13.38
2022-09-18T15:37:24.440Z,13.18
2022-09-18T15:40:30.475Z,13.14
2022-09-18T15:43:43.679Z,12.99
2022-09-18T15:46:46.618Z,12.91
2022-09-18T15:49:51.663Z,12.61
2022-09-18T15:53:08.789Z,12.64
2022-09-18T15:56:21.344Z,12.66
2022-09-18T15:59:30.951Z,12.64
2022-09-18T16:02:37.575Z,12.55
2022-09-18T16:05:53.809Z,12.51
2022-09-18T16:08:58.084Z,12.44
2022-09-18T16:12:01.887Z,12.46
2022-09-18T16:15:26.145Z,12.51
2022-09-18T16:18:29.950Z,12.47
2022-09-18T16:21:41.957Z,12.44
2022-09-18T16:24:44.952Z,12.32
2022-09-18T16:27:49.803Z,12.32
2022-09-18T16:30:52.983Z,12.25
2022-09-18T16:34:01.191Z,12.16
2022-09-18T16:37:12.186Z,12.20
2022-09-18T16:40:25.343Z,12.17
2022-09-18T16:43:30.684Z,12.21
2022-09-18T16:46:43.126Z,12.16
2022-09-18T16:49:49.245Z,11.99
2022-09-18T16:52:58.465Z,12.02
2022-09-18T16:56:08.155Z,11.99
2022-09-18T16:59:11.501Z,11.95
2022-09-18T17:02:18.166Z,11.70
2022-09-18T17:05:21.082Z,11.55
2022-09-18T17:08:25.579Z,10.91
2022-09-18T17:11:28.593Z,10.67
2022-09-18T17:14:31.597Z,10.62
2022-09-18T17:17:35.071Z,10.65
2022-09-18T17:20:38.589Z,10.71
2022-09-18T17:23:42.902Z,10.58
2022-09-18T17:26:46.306Z,10.63
2022-09-18T17:29:49.750Z,10.48
2022-09-18T17:32:52.945Z,10.47
2022-09-18T17:35:56.157Z,10.49
2022-09-18T17:39:02.492Z,10.36
2022-09-18T17:42:06.575Z,10.24
2022-09-18T17:45:10.572Z,10.37
2022-09-18T17:48:13.732Z,10.42
2022-09-18T17:51:18.678Z,10.42
2022-09-18T17:54:23.291Z,10.37
2022-09-18T17:57:26.610Z,10.39
2022-09-18T18:00:29.900Z,10.42
2022-09-18T18:03:33.221Z,10.27
2022-09-18T18:06:36.903Z,10.28
2022-09-18T18:09:41.300Z,10.22
2022-09-18T18:12:44.419Z,10.15
2022-09-18T18:15:48.215Z,10.07
2022-09-18T18:18:52.713Z,10.02
2022-09-18T18:21:58.292Z,10.03
2022-09-18T18:25:02.838Z,9.83
2022-09-18T18:28:12.808Z,9.90
2022-09-18T18:31:17.241Z,9.92
2022-09-18T18:34:22.165Z,9.96
2022-09-18T18:37:25.189Z,9.93
2022-09-18T18:40:29.850Z,9.98
2022-09-18T18:43:33.724Z,9.91
2022-09-18T18:46:38.094Z,9.90
2022-09-18T18:49:41.174Z,9.93
2022-09-18T18:52:45.355Z,9.88
2022-09-18T18:55:51.360Z,9.98
2022-09-18T18:58:57.669Z,10.11
2022-09-18T19:02:01.149Z,10.13
2022-09-18T19:05:06.265Z,10.14
2022-09-18T19:08:09.606Z,10.10
2022-09-18T19:11:16.047Z,10.10
2022-09-18T19:14:21.554Z,10.17
2022-09-18T19:17:24.511Z,10.18
2022-09-18T19:20:27.484Z,10.14
2022-09-18T19:23:30.617Z,10.16
2022-09-18T19:26:36.890Z,10.16
2022-09-18T19:29:39.855Z,10.20
2022-09-18T19:32:53.763Z,10.28
2022-09-18T19:36:10.634Z,10.29
2022-09-18T19:39:17.476Z,10.32
2022-09-18T19:42:25.660Z,10.33
2022-09-18T19:45:31.172Z,10.30
2022-09-18T19:48:35.622Z,10.28
2022-09-18T19:51:38.716Z,10.30
2022-09-18T19:54:42.043Z,10.32
2022-09-18T19:57:46.531Z,10.37
2022-09-18T20:00:50.594Z,10.35
2022-09-18T20:03:54.947Z,10.20
2022-09-18T20:06:57.924Z,10.15
2022-09-18T20:10:00.904Z,10.09
2022-09-18T20:13:06.053Z,10.15
2022-09-18T20:16:12.713Z,10.19
2022-09-18T20:19:15.678Z,10.21
2022-09-18T20:22:18.909Z,10.24
2022-09-18T20:25:53.254Z,10.12
2022-09-18T20:29:00.470Z,10.13
2022-09-18T20:32:03.790Z,10.12
2022-09-18T20:35:07.871Z,10.15
2022-09-18T20:38:11.694Z,10.16
2022-09-18T20:41:15.972Z,10.17
2022-09-18T20:44:21.901Z,10.11
2022-09-18T20:47:26.163Z,10.06
2022-09-18T20:50:29.108Z,10.01
2022-09-18T20:53:32.026Z,9.97
2022-09-18T20:56:41.170Z,9.96
2022-09-18T20:59:45.646Z,9.89
2022-09-18T21:02:51.850Z,9.84
2022-09-18T21:06:23.319Z,9.82
2022-09-18T21:09:30.739Z,9.86
2022-09-18T21:12:38.774Z,9.82
2022-09-18T21:15:47.157Z,9.85
2022-09-18T21:18:55.610Z,9.86
2022-09-18T21:21:58.561Z,9.82
2022-09-18T21:25:01.642Z,9.76
2022-09-18T21:28:05.964Z,9.76
2022-09-18T21:31:12.242Z,9.79
2022-09-18T21:34:23.752Z,9.81
2022-09-18T21:37:26.815Z,9.81
2022-09-18T21:40:30.292Z,9.74
2022-09-18T21:43:33.757Z,9.69
2022-09-18T21:46:40.240Z,9.75
2022-09-18T21:49:43.382Z,9.72
2022-09-18T21:52:46.415Z,9.66
2022-09-18T21:55:49.506Z,9.68
2022-09-18T21:58:55.768Z,9.69
2022-09-18T22:02:01.799Z,9.74
2022-09-18T22:05:12.195Z,9.73
2022-09-18T22:08:16.565Z,9.71
2022-09-18T22:11:22.771Z,9.70
2022-09-18T22:14:32.620Z,9.59
2022-09-18T22:17:36.882Z,9.66
2022-09-18T22:20:39.831Z,9.63
2022-09-18T22:23:42.951Z,9.69
2022-09-18T22:26:49.203Z,9.64
2022-09-18T22:29:52.142Z,9.69
2022-09-18T22:32:56.501Z,9.76
2022-09-18T22:36:05.213Z,9.68
2022-09-18T22:39:11.776Z,9.70
2022-09-18T22:42:15.051Z,9.83
2022-09-18T22:45:18.628Z,9.81
2022-09-18T22:48:22.982Z,9.86
2022-09-18T22:51:28.097Z,9.87
2022-09-18T22:54:31.145Z,9.82
2022-09-18T22:57:34.234Z,9.71
2022-09-18T23:00:37.225Z,9.68
2022-09-18T23:03:41.965Z,9.75
2022-09-18T23:06:46.538Z,9.76
2022-09-18T23:09:49.659Z,9.76
2022-09-18T23:12:52.744Z,9.74
2022-09-18T23:15:55.786Z,9.80
2022-09-18T23:19:05.430Z,9.82
2022-09-18T23:22:09.966Z,9.82
2022-09-18T23:25:12.966Z,9.87
2022-09-18T23:28:15.906Z,9.85
2022-09-18T23:31:22.892Z,9.89
2022-09-18T23:34:31.745Z,9.95
2022-09-18T23:37:34.660Z,9.86
2022-09-18T23:40:37.686Z,9.88
2022-09-18T23:43:46.012Z,9.86
2022-09-18T23:46:49.630Z,9.88
2022-09-18T23:49:54.003Z,9.89
2022-09-18T23:52:56.938Z,9.87
2022-09-18T23:56:04.895Z,9.86
2022-09-18T23:59:08.414Z,9.80
